DABB/AAE METAR and TAF weather

Enter ICAO airport designator
Station Type Date Time Source
DABB METAR 2021/04/18 02:00 UTC NOAA

DABB 180200Z 24004KT 6000 FEW020 BKN200 08/08 Q1016


Station Type Date Time Source
DABB Decoded METAR 2021/04/18 02:00 UTC NOAA

Annaba, Algeria (DABB) 36-50N 007-49E 4M
Apr 17, 2021 - 10:00 PM EDT / 2021.04.18 0200 UTC
Wind: from the WSW (240 degrees) at 5 MPH (4 KT):0
Visibility: 3 mile(s):0
Sky conditions: mostly cloudy
Temperature: 46 F (8 C)
Dew Point: 46 F (8 C)
Relative Humidity: 100%
Pressure (altimeter): 30.00 in. Hg (1016 hPa)
ob: DABB 180200Z 24004KT 6000 FEW020 BKN200 08/08 Q1016
cycle: 2

Station Type Date Time Source
DABB TAF 2021/04/17 18:33 UTC NOAA

TAF DABB 171700Z 1718/1818 35012KT 6000 -RA FEW020 BKN030
TEMPO 1718/1724 5000 -RA FEW023TCU PROB30
TEMPO 1718/1722 01015G25KT 3000 TSRA SCT023CB
BECMG 1716/1718 25007KT

Example: see airport list